Time;durP1;ratioP1;P1;durP2;ratioP2;P2;SDS_P1;SDS_P2;PMS_P1;PMS_P2;Temp;Humidity;BMP_temperature;BMP_pressure;BME280_temperature;BME280_humidity;BME280_pressure;Samples;Min_cycle;Max_cycle;Signal;HPM_P1;HPM_P2
2023/06/18 00:01:31;;;;;;;12.90;9.65;;;;;;;;;;5008599;28;20434;-54
2023/06/18 00:03:56;;;;;;;15.50;9.93;;;;;;;;;;5011071;28;20052;-53
2023/06/18 00:06:21;;;;;;;15.50;9.25;;;;;;;;;;5011979;28;20026;-55
2023/06/18 00:08:47;;;;;;;11.63;8.90;;;;;;;;;;4997535;28;20109;-55
2023/06/18 00:11:13;;;;;;;14.10;8.75;;;;;;;;;;5012112;28;20037;-56
2023/06/18 00:13:38;;;;;;;11.80;9.32;;;;;;;;;;5013881;28;20030;-55
2023/06/18 00:16:03;;;;;;;14.52;9.02;;;;;;;;;;5032757;28;20038;-58
2023/06/18 00:18:29;;;;;;;11.00;8.88;;;;;;;;;;5033163;28;20079;-54
2023/06/18 00:20:54;;;;;;;14.40;9.18;;;;;;;;;;5021639;28;20364;-55
2023/06/18 00:23:20;;;;;;;12.27;8.95;;;;;;;;;;5012859;28;20104;-52
2023/06/18 00:25:46;;;;;;;12.35;8.95;;;;;;;;;;5012878;28;20041;-55
2023/06/18 00:28:11;;;;;;;14.52;9.50;;;;;;;;;;4996602;28;20395;-54
2023/06/18 00:30:37;;;;;;;12.55;9.57;;;;;;;;;;5017513;28;20371;-53
2023/06/18 00:33:03;;;;;;;11.30;8.35;;;;;;;;;;5015984;28;20036;-57
2023/06/18 00:35:28;;;;;;;12.30;9.00;;;;;;;;;;5011707;28;20148;-55
2023/06/18 00:37:54;;;;;;;12.30;9.18;;;;;;;;;;4997156;28;20042;-53
2023/06/18 00:40:19;;;;;;;13.13;9.40;;;;;;;;;;5013785;28;20046;-51
2023/06/18 00:42:48;;;;;;;14.90;9.02;;;;;;;;;;5008040;28;20053;-56
2023/06/18 00:45:14;;;;;;;12.27;9.40;;;;;;;;;;4992084;28;20140;-54
2023/06/18 00:47:44;;;;;;;12.35;9.07;;;;;;;;;;5009159;28;20483;-55
2023/06/18 00:50:12;;;;;;;13.77;10.15;;;;;;;;;;5005129;28;20415;-55
2023/06/18 00:52:44;;;;;;;14.40;9.50;;;;;;;;;;4992757;28;20100;-53
2023/06/18 00:55:10;;;;;;;13.27;9.27;;;;;;;;;;4993135;28;20058;-53
2023/06/18 00:57:37;;;;;;;11.77;9.13;;;;;;;;;;4992953;28;20124;-57
2023/06/18 01:00:05;;;;;;;13.35;9.73;;;;;;;;;;4993488;28;20044;-53
2023/06/18 01:02:30;;;;;;;12.73;9.48;;;;;;;;;;4994010;28;20035;-52
2023/06/18 01:04:57;;;;;;;13.60;9.80;;;;;;;;;;5010105;28;20060;-56
2023/06/18 01:07:23;;;;;;;14.52;9.68;;;;;;;;;;4996449;28;20117;-53
2023/06/18 01:09:53;;;;;;;13.45;9.45;;;;;;;;;;4997822;28;20080;-53
2023/06/18 01:12:22;;;;;;;12.32;9.77;;;;;;;;;;5007995;28;20100;-55
2023/06/18 01:14:50;;;;;;;15.18;9.70;;;;;;;;;;5003704;28;20037;-54
2023/06/18 01:17:19;;;;;;;13.93;9.57;;;;;;;;;;4998037;28;20041;-55
2023/06/18 01:19:55;;;;;;;15.38;9.73;;;;;;;;;;5012584;28;20025;-54
2023/06/18 01:22:46;;;;;;;15.10;10.07;;;;;;;;;;5002944;28;20038;-55
2023/06/18 01:25:13;;;;;;;13.77;10.05;;;;;;;;;;4992193;28;20039;-51
2023/06/18 01:27:40;;;;;;;12.75;9.32;;;;;;;;;;5002010;28;20663;-54
2023/06/18 01:30:11;;;;;;;12.80;9.80;;;;;;;;;;5011312;28;20397;-59
2023/06/18 01:32:36;;;;;;;;;;;;;;;;;;5008550;28;20077;-54
2023/06/18 01:35:03;;;;;;;12.73;9.60;;;;;;;;;;4992222;28;20022;-55
2023/06/18 01:38:02;;;;;;;18.35;10.38;;;;;;;;;;4993420;28;20441;-54
2023/06/18 01:40:45;;;;;;;15.90;10.13;;;;;;;;;;4995344;28;20184;-57
2023/06/18 01:43:13;;;;;;;13.82;9.98;;;;;;;;;;4991769;28;20091;-55
2023/06/18 01:45:47;;;;;;;14.80;10.55;;;;;;;;;;5003395;28;20064;-54
2023/06/18 01:48:13;;;;;;;13.05;10.05;;;;;;;;;;4998875;28;20045;-58
2023/06/18 01:50:42;;;;;;;14.90;10.48;;;;;;;;;;4995417;28;20037;-52
2023/06/18 01:53:13;;;;;;;14.23;9.85;;;;;;;;;;5010775;28;20026;-56
2023/06/18 01:55:41;;;;;;;12.50;10.02;;;;;;;;;;5003515;28;20034;-54
2023/06/18 01:58:07;;;;;;;13.38;9.90;;;;;;;;;;4990597;28;20099;-58
2023/06/18 02:00:32;;;;;;;13.70;10.25;;;;;;;;;;5006370;28;20417;-52
2023/06/18 02:02:58;;;;;;;14.10;9.95;;;;;;;;;;5011000;28;20369;-55
2023/06/18 02:05:24;;;;;;;14.18;10.23;;;;;;;;;;4990682;28;20058;-57
2023/06/18 02:07:50;;;;;;;13.70;10.35;;;;;;;;;;5011623;28;20057;-54
2023/06/18 02:10:15;;;;;;;13.52;10.00;;;;;;;;;;4993314;28;20034;-54
2023/06/18 02:12:40;;;;;;;14.48;10.32;;;;;;;;;;5004776;28;20101;-54
2023/06/18 02:15:06;;;;;;;15.15;10.55;;;;;;;;;;4993420;28;20034;-56
2023/06/18 02:17:32;;;;;;;13.65;10.20;;;;;;;;;;4996759;28;20475;-55
2023/06/18 02:19:57;;;;;;;15.30;10.63;;;;;;;;;;5011130;28;20441;-54
2023/06/18 02:22:24;;;;;;;13.77;10.80;;;;;;;;;;5000423;28;20022;-54
2023/06/18 02:24:49;;;;;;;14.68;10.43;;;;;;;;;;5003325;28;20052;-56
2023/06/18 02:27:14;;;;;;;13.80;10.80;;;;;;;;;;5001315;28;20464;-56
2023/06/18 02:29:41;;;;;;;13.65;10.68;;;;;;;;;;5004058;28;20034;-55
2023/06/18 02:32:07;;;;;;;14.18;10.65;;;;;;;;;;5002121;28;20073;-54
2023/06/18 02:34:32;;;;;;;14.80;10.40;;;;;;;;;;4989192;28;20077;-56
2023/06/18 02:36:57;;;;;;;15.15;10.65;;;;;;;;;;4998099;28;20104;-56
2023/06/18 02:39:23;;;;;;;13.00;10.48;;;;;;;;;;5006932;28;20038;-52
2023/06/18 02:41:48;;;;;;;14.32;10.70;;;;;;;;;;4995323;28;20055;-54
2023/06/18 02:44:14;;;;;;;14.15;10.90;;;;;;;;;;4992884;28;20073;-58
2023/06/18 02:46:39;;;;;;;14.02;10.75;;;;;;;;;;5002840;28;20466;-56
2023/06/18 02:49:05;;;;;;;15.07;11.20;;;;;;;;;;5004229;28;20030;-55
2023/06/18 02:51:30;;;;;;;15.95;10.93;;;;;;;;;;5011148;28;20038;-56
2023/06/18 02:53:55;;;;;;;15.68;11.30;;;;;;;;;;5010662;28;20467;-56
2023/06/18 02:56:21;;;;;;;15.07;11.48;;;;;;;;;;5009071;28;20034;-56
2023/06/18 02:58:51;;;;;;;16.38;12.30;;;;;;;;;;5002190;28;20120;-54
2023/06/18 03:01:19;;;;;;;13.52;11.30;;;;;;;;;;5009022;28;20041;-54
2023/06/18 03:03:44;;;;;;;12.95;10.45;;;;;;;;;;5009716;28;20489;-55
2023/06/18 03:06:10;;;;;;;15.77;11.07;;;;;;;;;;5005074;28;20105;-54
2023/06/18 03:08:35;;;;;;;15.45;10.88;;;;;;;;;;4992538;28;20034;-55
2023/06/18 03:11:01;;;;;;;13.27;11.07;;;;;;;;;;4995248;28;20394;-54
2023/06/18 03:13:26;;;;;;;19.48;13.40;;;;;;;;;;5001691;28;20076;-55
2023/06/18 03:15:51;;;;;;;16.58;12.82;;;;;;;;;;4991784;28;20468;-51
2023/06/18 03:18:17;;;;;;;16.02;12.32;;;;;;;;;;4994401;28;20042;-55
2023/06/18 03:20:42;;;;;;;20.50;12.00;;;;;;;;;;4990764;28;20041;-55
2023/06/18 03:23:08;;;;;;;13.35;10.55;;;;;;;;;;5003655;28;20121;-53
2023/06/18 03:25:33;;;;;;;14.95;11.77;;;;;;;;;;5008259;28;20033;-57
2023/06/18 03:27:58;;;;;;;14.27;11.77;;;;;;;;;;5006728;28;20026;-54
2023/06/18 03:30:24;;;;;;;16.67;11.13;;;;;;;;;;4994239;28;20030;-54
2023/06/18 03:32:50;;;;;;;15.90;11.93;;;;;;;;;;4998837;28;20034;-55
2023/06/18 03:35:15;;;;;;;17.83;12.05;;;;;;;;;;4994517;28;20030;-57
2023/06/18 03:37:42;;;;;;;15.05;11.15;;;;;;;;;;4995385;28;20044;-53
2023/06/18 03:40:08;;;;;;;14.10;11.95;;;;;;;;;;5009376;28;20042;-52
2023/06/18 03:42:33;;;;;;;15.90;11.82;;;;;;;;;;4994168;28;20030;-56
2023/06/18 03:44:59;;;;;;;17.48;12.18;;;;;;;;;;5005499;28;20076;-56
2023/06/18 03:47:25;;;;;;;15.35;11.90;;;;;;;;;;5000960;28;20022;-58
2023/06/18 03:49:51;;;;;;;15.65;11.43;;;;;;;;;;5029165;28;20410;-56
2023/06/18 03:52:16;;;;;;;14.75;11.93;;;;;;;;;;5019691;28;20061;-56
2023/06/18 03:54:42;;;;;;;14.98;11.93;;;;;;;;;;4998186;28;20525;-53
2023/06/18 03:57:08;;;;;;;17.15;12.05;;;;;;;;;;5018080;28;20095;-56
2023/06/18 03:59:34;;;;;;;14.75;11.63;;;;;;;;;;4994821;28;20833;-53
2023/06/18 04:01:59;;;;;;;15.10;11.63;;;;;;;;;;4995280;28;20034;-55
2023/06/18 04:04:24;;;;;;;15.90;12.10;;;;;;;;;;5003636;28;20066;-56
2023/06/18 04:06:50;;;;;;;15.68;12.02;;;;;;;;;;5000472;28;20031;-52
2023/06/18 04:09:15;;;;;;;14.13;11.63;;;;;;;;;;5003413;28;20173;-56
2023/06/18 04:11:42;;;;;;;15.65;11.40;;;;;;;;;;4994175;28;20031;-50
2023/06/18 04:14:09;;;;;;;14.63;11.57;;;;;;;;;;4995291;28;20492;-50
2023/06/18 04:16:34;;;;;;;14.55;10.85;;;;;;;;;;5004499;28;20121;-56
2023/06/18 04:19:00;;;;;;;14.20;11.80;;;;;;;;;;4999143;28;20118;-49
2023/06/18 04:21:25;;;;;;;15.02;11.63;;;;;;;;;;4994080;28;20070;-53
2023/06/18 04:23:52;;;;;;;16.10;11.43;;;;;;;;;;5014095;28;20037;-49
2023/06/18 04:26:18;;;;;;;13.57;10.85;;;;;;;;;;5010865;28;20041;-56
2023/06/18 04:28:43;;;;;;;14.60;11.85;;;;;;;;;;5007286;28;20467;-53
2023/06/18 04:31:09;;;;;;;14.70;11.70;;;;;;;;;;5006624;28;20160;-50
2023/06/18 04:33:34;;;;;;;16.17;12.02;;;;;;;;;;5011421;28;20073;-53
2023/06/18 04:35:59;;;;;;;14.88;12.25;;;;;;;;;;5011689;28;20038;-53
2023/06/18 04:38:26;;;;;;;18.13;12.48;;;;;;;;;;5001951;28;20026;-55
2023/06/18 04:40:52;;;;;;;15.77;11.82;;;;;;;;;;5008612;28;20049;-55
2023/06/18 04:43:17;;;;;;;16.27;11.75;;;;;;;;;;5003198;28;20113;-58
2023/06/18 04:45:46;;;;;;;14.75;11.13;;;;;;;;;;5003506;28;20418;-51
2023/06/18 04:48:14;;;;;;;13.90;11.38;;;;;;;;;;5012173;28;20030;-55
2023/06/18 04:50:40;;;;;;;15.35;12.15;;;;;;;;;;5010998;28;20655;-54
2023/06/18 04:53:05;;;;;;;15.85;11.60;;;;;;;;;;5012715;28;20033;-54
2023/06/18 04:55:30;;;;;;;16.42;10.95;;;;;;;;;;5012285;28;20072;-52
2023/06/18 04:57:56;;;;;;;15.95;11.25;;;;;;;;;;5017984;28;20029;-54
2023/06/18 05:00:22;;;;;;;16.98;10.80;;;;;;;;;;5012139;28;20340;-57
2023/06/18 05:02:48;;;;;;;13.98;10.98;;;;;;;;;;5012241;28;20049;-54
2023/06/18 05:05:15;;;;;;;13.50;10.93;;;;;;;;;;5012963;28;20029;-55
2023/06/18 05:07:40;;;;;;;14.32;11.07;;;;;;;;;;5012225;28;20642;-54
2023/06/18 05:10:06;;;;;;;13.60;10.43;;;;;;;;;;5013810;28;20025;-55
2023/06/18 05:12:31;;;;;;;14.25;10.90;;;;;;;;;;5031796;28;20383;-53
2023/06/18 05:14:57;;;;;;;15.80;11.10;;;;;;;;;;5015439;28;20034;-52
2023/06/18 05:17:22;;;;;;;16.25;10.73;;;;;;;;;;5012146;28;20459;-58
2023/06/18 05:19:48;;;;;;;13.90;11.48;;;;;;;;;;5012800;28;20496;-53
2023/06/18 05:22:13;;;;;;;15.88;10.57;;;;;;;;;;5014892;28;20059;-56
2023/06/18 05:24:39;;;;;;;12.63;9.60;;;;;;;;;;5022753;28;20041;-53
2023/06/18 05:27:05;;;;;;;14.88;10.07;;;;;;;;;;5010052;28;20126;-55
2023/06/18 05:29:31;;;;;;;14.93;10.30;;;;;;;;;;4992341;28;20034;-51
2023/06/18 05:31:56;;;;;;;14.88;11.30;;;;;;;;;;4998278;28;20048;-53
2023/06/18 05:34:21;;;;;;;15.65;10.20;;;;;;;;;;5012221;28;20037;-58
2023/06/18 05:36:47;;;;;;;14.95;10.95;;;;;;;;;;4999443;28;20061;-54
2023/06/18 05:39:12;;;;;;;14.85;10.40;;;;;;;;;;5006052;28;20453;-56
2023/06/18 05:41:38;;;;;;;13.38;10.65;;;;;;;;;;5011897;28;20099;-56
2023/06/18 05:44:03;;;;;;;16.20;10.85;;;;;;;;;;5011797;28;20030;-53
2023/06/18 05:46:29;;;;;;;12.45;9.82;;;;;;;;;;5011511;28;20470;-57
2023/06/18 05:48:54;;;;;;;15.38;10.60;;;;;;;;;;5006989;28;20434;-55
2023/06/18 05:51:19;;;;;;;14.35;10.15;;;;;;;;;;4992318;28;20057;-54
2023/06/18 05:53:45;;;;;;;12.77;10.32;;;;;;;;;;4992230;28;20037;-56
2023/06/18 05:56:10;;;;;;;14.30;10.38;;;;;;;;;;5009746;28;20030;-55
2023/06/18 05:58:36;;;;;;;12.15;10.05;;;;;;;;;;5031041;28;20110;-54
2023/06/18 06:01:01;;;;;;;14.13;10.13;;;;;;;;;;5018879;28;20428;-52
2023/06/18 06:03:27;;;;;;;13.27;9.40;;;;;;;;;;5031487;28;20041;-56
2023/06/18 06:05:52;;;;;;;13.30;9.70;;;;;;;;;;5016419;28;20042;-52
2023/06/18 06:08:18;;;;;;;11.27;9.35;;;;;;;;;;5010117;28;20034;-55
2023/06/18 06:10:43;;;;;;;11.18;8.73;;;;;;;;;;5011098;28;20030;-52
2023/06/18 06:13:09;;;;;;;13.27;9.50;;;;;;;;;;5016138;28;20037;-54
2023/06/18 06:15:34;;;;;;;13.50;9.57;;;;;;;;;;5028321;28;20037;-55
2023/06/18 06:18:01;;;;;;;11.75;9.02;;;;;;;;;;5000444;28;20034;-53
2023/06/18 06:20:26;;;;;;;12.18;9.20;;;;;;;;;;4991357;28;20037;-57
2023/06/18 06:22:52;;;;;;;13.82;9.10;;;;;;;;;;5002957;28;20042;-54
2023/06/18 06:25:17;;;;;;;11.93;9.38;;;;;;;;;;5009423;28;20057;-53
2023/06/18 06:27:43;;;;;;;11.55;9.13;;;;;;;;;;5010117;28;20403;-56
2023/06/18 06:30:09;;;;;;;11.60;8.88;;;;;;;;;;5010104;28;20104;-54
2023/06/18 06:32:35;;;;;;;11.82;9.15;;;;;;;;;;5008826;28;20044;-56
2023/06/18 06:35:02;;;;;;;11.20;8.85;;;;;;;;;;5009695;28;20026;-56
2023/06/18 06:37:29;;;;;;;10.48;8.52;;;;;;;;;;5000724;28;20038;-54
2023/06/18 06:39:54;;;;;;;12.73;9.05;;;;;;;;;;5004244;28;20525;-55
2023/06/18 06:42:20;;;;;;;10.50;8.50;;;;;;;;;;5008888;28;20109;-54
2023/06/18 06:44:45;;;;;;;12.05;8.55;;;;;;;;;;5005676;28;20118;-51
2023/06/18 06:47:10;;;;;;;12.70;8.65;;;;;;;;;;5009631;28;20478;-55
2023/06/18 06:49:36;;;;;;;12.60;8.48;;;;;;;;;;5010626;28;20041;-55
2023/06/18 06:52:02;;;;;;;11.98;8.30;;;;;;;;;;5000787;28;20061;-51
2023/06/18 06:54:27;;;;;;;9.82;8.10;;;;;;;;;;4995920;28;20038;-58
2023/06/18 06:56:52;;;;;;;11.07;8.80;;;;;;;;;;5010529;28;20026;-53
2023/06/18 06:59:18;;;;;;;9.88;8.35;;;;;;;;;;5011347;28;20058;-56
2023/06/18 07:01:44;;;;;;;10.68;8.10;;;;;;;;;;5019554;28;20613;-55
2023/06/18 07:04:10;;;;;;;11.00;8.30;;;;;;;;;;5011838;28;20033;-56
2023/06/18 07:06:39;;;;;;;10.50;8.38;;;;;;;;;;5014431;28;20105;-54
2023/06/18 07:09:06;;;;;;;10.55;8.32;;;;;;;;;;5011890;28;20041;-55
2023/06/18 07:11:33;;;;;;;11.48;8.23;;;;;;;;;;5014303;28;20479;-56
2023/06/18 07:13:59;;;;;;;11.43;8.05;;;;;;;;;;5016190;28;20500;-54
2023/06/18 07:16:24;;;;;;;14.10;7.88;;;;;;;;;;5014126;28;20054;-55
2023/06/18 07:18:50;;;;;;;11.18;8.13;;;;;;;;;;5014521;28;20049;-55
2023/06/18 07:21:16;;;;;;;9.85;7.93;;;;;;;;;;5006073;28;20041;-55
2023/06/18 07:23:41;;;;;;;9.73;7.32;;;;;;;;;;5007803;28;20078;-54
2023/06/18 07:26:07;;;;;;;9.98;7.38;;;;;;;;;;4999217;28;20471;-55
2023/06/18 07:28:32;;;;;;;10.20;7.57;;;;;;;;;;5001640;28;20041;-55
2023/06/18 07:30:57;;;;;;;10.00;7.40;;;;;;;;;;4995134;28;20108;-53
2023/06/18 07:33:23;;;;;;;12.98;7.70;;;;;;;;;;4995472;28;20054;-52
2023/06/18 07:35:48;;;;;;;10.05;7.65;;;;;;;;;;5005019;28;20692;-54
2023/06/18 07:38:13;;;;;;;9.52;7.40;;;;;;;;;;5006909;28;20133;-56
2023/06/18 07:40:39;;;;;;;10.63;7.50;;;;;;;;;;5010480;28;20061;-56
2023/06/18 07:43:04;;;;;;;9.02;7.10;;;;;;;;;;5003586;28;20360;-55
2023/06/18 07:45:30;;;;;;;9.10;7.10;;;;;;;;;;5000854;28;20034;-56
2023/06/18 07:47:55;;;;;;;8.75;6.82;;;;;;;;;;5027345;28;20498;-56
2023/06/18 07:50:21;;;;;;;12.65;7.85;;;;;;;;;;5025450;28;20175;-54
2023/06/18 07:52:47;;;;;;;9.82;6.90;;;;;;;;;;5013637;28;20034;-52
2023/06/18 07:55:12;;;;;;;8.73;6.90;;;;;;;;;;5017408;28;20030;-56
2023/06/18 07:57:38;;;;;;;8.77;6.75;;;;;;;;;;5018137;28;20501;-55
2023/06/18 08:00:05;;;;;;;8.52;6.97;;;;;;;;;;5010545;28;20033;-56
2023/06/18 08:02:30;;;;;;;9.43;6.38;;;;;;;;;;5007675;28;20121;-57
2023/06/18 08:04:55;;;;;;;8.95;6.57;;;;;;;;;;5007356;28;20586;-56
2023/06/18 08:07:21;;;;;;;10.55;6.38;;;;;;;;;;5014125;28;20029;-52
2023/06/18 08:09:46;;;;;;;9.43;6.70;;;;;;;;;;5009005;28;20419;-53
2023/06/18 08:12:12;;;;;;;8.50;6.40;;;;;;;;;;4994144;28;20037;-55
2023/06/18 08:14:37;;;;;;;9.45;6.65;;;;;;;;;;5004296;28;20426;-55
2023/06/18 08:17:03;;;;;;;8.90;6.43;;;;;;;;;;5011644;28;20083;-52
2023/06/18 08:19:29;;;;;;;9.15;6.32;;;;;;;;;;4994118;28;20030;-55
2023/06/18 08:21:54;;;;;;;7.88;6.03;;;;;;;;;;5006182;28;20443;-49
2023/06/18 08:24:19;;;;;;;6.78;6.07;;;;;;;;;;5033575;28;20056;-51
2023/06/18 08:26:45;;;;;;;10.23;6.20;;;;;;;;;;5032961;28;20028;-54
2023/06/18 08:29:10;;;;;;;8.45;5.82;;;;;;;;;;5033627;28;20108;-54
2023/06/18 08:31:40;;;;;;;7.00;6.05;;;;;;;;;;5019162;28;20036;-54
2023/06/18 08:34:06;;;;;;;9.20;6.35;;;;;;;;;;5005507;28;20034;-59
2023/06/18 08:36:32;;;;;;;9.95;6.05;;;;;;;;;;5013270;28;20439;-59
2023/06/18 08:38:57;;;;;;;9.02;5.95;;;;;;;;;;5012005;28;20394;-59
2023/06/18 08:41:22;;;;;;;9.13;6.00;;;;;;;;;;5013000;28;20037;-59
2023/06/18 08:43:48;;;;;;;10.52;6.18;;;;;;;;;;5011753;28;20038;-59
2023/06/18 08:46:15;;;;;;;7.82;5.78;;;;;;;;;;5013772;28;20037;-59
2023/06/18 08:48:45;;;;;;;6.82;5.68;;;;;;;;;;5011626;28;20045;-59
2023/06/18 08:51:11;;;;;;;9.90;6.05;;;;;;;;;;5001523;28;20121;-57
2023/06/18 08:53:53;;;;;;;6.90;5.50;;;;;;;;;;4991033;28;20521;-59
2023/06/18 08:56:22;;;;;;;6.75;5.63;;;;;;;;;;4993831;28;20065;-59
2023/06/18 08:58:50;;;;;;;9.75;5.68;;;;;;;;;;5002658;28;20033;-59
2023/06/18 09:01:15;;;;;;;10.10;6.20;;;;;;;;;;5013110;28;20034;-59
2023/06/18 09:03:42;;;;;;;6.50;5.60;;;;;;;;;;5007220;28;20058;-59
2023/06/18 09:06:07;;;;;;;8.32;6.03;;;;;;;;;;4993716;28;20437;-58
2023/06/18 09:08:33;;;;;;;7.90;5.68;;;;;;;;;;5003604;28;20113;-58
2023/06/18 09:11:00;;;;;;;6.13;5.50;;;;;;;;;;5012257;28;20078;-58
2023/06/18 09:13:25;;;;;;;8.63;5.55;;;;;;;;;;5010782;28;20402;-58
2023/06/18 09:15:51;;;;;;;7.55;5.90;;;;;;;;;;5011930;28;20466;-59
2023/06/18 09:18:17;;;;;;;6.80;5.50;;;;;;;;;;5011773;28;20364;-58
2023/06/18 09:20:42;;;;;;;7.95;5.75;;;;;;;;;;5011970;28;20033;-59
2023/06/18 09:23:08;;;;;;;8.05;5.30;;;;;;;;;;5011828;28;20113;-59
2023/06/18 09:25:34;;;;;;;8.48;5.63;;;;;;;;;;5011393;28;20108;-59
2023/06/18 09:28:02;;;;;;;7.80;5.55;;;;;;;;;;5007720;28;20109;-58
2023/06/18 09:30:28;;;;;;;8.18;5.22;;;;;;;;;;5010615;28;20514;-60
2023/06/18 09:32:57;;;;;;;6.10;5.05;;;;;;;;;;5011954;28;20113;-57
2023/06/18 09:35:23;;;;;;;7.82;4.82;;;;;;;;;;5010298;28;20041;-58
2023/06/18 09:37:48;;;;;;;8.32;5.15;;;;;;;;;;5010505;28;20037;-59
2023/06/18 09:40:19;;;;;;;6.57;5.20;;;;;;;;;;5007079;28;20046;-58
2023/06/18 09:42:45;;;;;;;6.63;5.22;;;;;;;;;;5007128;28;20030;-58
2023/06/18 09:45:12;;;;;;;6.93;5.22;;;;;;;;;;5010990;28;20120;-58
2023/06/18 09:47:43;;;;;;;7.85;5.30;;;;;;;;;;5011690;28;20033;-60
2023/06/18 09:50:10;;;;;;;8.90;5.18;;;;;;;;;;5006390;28;20553;-58
2023/06/18 09:52:46;;;;;;;7.22;5.40;;;;;;;;;;4992442;28;20109;-58
2023/06/18 09:55:29;;;;;;;6.35;5.40;;;;;;;;;;4997439;28;20033;-59
2023/06/18 09:57:54;;;;;;;5.95;5.13;;;;;;;;;;5006454;28;20041;-58
2023/06/18 10:00:20;;;;;;;6.65;5.47;;;;;;;;;;4992716;28;20113;-59
2023/06/18 10:02:46;;;;;;;7.97;5.32;;;;;;;;;;4991181;28;20034;-57
2023/06/18 10:05:11;;;;;;;9.88;5.50;;;;;;;;;;4991283;28;20069;-58
2023/06/18 10:07:41;;;;;;;6.13;4.85;;;;;;;;;;4991659;28;20026;-59
2023/06/18 10:10:13;;;;;;;7.63;5.00;;;;;;;;;;4995325;28;20042;-59
2023/06/18 10:12:41;;;;;;;7.90;5.40;;;;;;;;;;5011374;28;20052;-59
2023/06/18 10:15:09;;;;;;;7.47;5.30;;;;;;;;;;5010342;28;20171;-58
2023/06/18 10:17:38;;;;;;;6.97;5.30;;;;;;;;;;5011784;28;20045;-58
2023/06/18 10:20:07;;;;;;;8.18;5.18;;;;;;;;;;5009434;28;20485;-58
2023/06/18 10:22:48;;;;;;;9.02;5.28;;;;;;;;;;5010630;28;20044;-57
2023/06/18 10:25:15;;;;;;;6.70;5.50;;;;;;;;;;5005995;28;20042;-59
2023/06/18 10:27:41;;;;;;;6.05;5.30;;;;;;;;;;4991549;28;20035;-59
2023/06/18 10:30:08;;;;;;;7.82;5.40;;;;;;;;;;4991457;28;20037;-59
2023/06/18 10:32:35;;;;;;;8.70;5.20;;;;;;;;;;4992547;28;20103;-58
2023/06/18 10:35:04;;;;;;;6.82;5.00;;;;;;;;;;4991122;28;20558;-58
2023/06/18 10:37:34;;;;;;;6.72;5.03;;;;;;;;;;4992005;28;20057;-58
2023/06/18 10:40:00;;;;;;;;;;;;;;;;;;4995507;28;20726;-58
2023/06/18 10:42:29;;;;;;;6.05;4.90;;;;;;;;;;5014106;28;19960;-58
2023/06/18 10:44:57;;;;;;;7.67;5.00;;;;;;;;;;5012758;28;20125;-58
2023/06/18 10:47:28;;;;;;;6.35;5.38;;;;;;;;;;5005426;28;20282;-58
2023/06/18 10:50:02;;;;;;;;;;;;;;;;;;4995785;28;20378;-57
2023/06/18 10:52:31;;;;;;;6.45;5.05;;;;;;;;;;4995162;28;19913;-58
2023/06/18 10:55:12;;;;;;;7.40;5.05;;;;;;;;;;4995042;28;20042;-59
2023/06/18 10:57:43;;;;;;;6.30;5.00;;;;;;;;;;4996313;28;20034;-57
2023/06/18 11:00:31;;;;;;;7.80;5.50;;;;;;;;;;5015635;28;20042;-58
2023/06/18 11:03:11;;;;;;;7.60;5.28;;;;;;;;;;5013018;28;20061;-57
2023/06/18 11:05:46;;;;;;;7.47;4.97;;;;;;;;;;5015260;28;20113;-58
2023/06/18 11:08:13;;;;;;;6.20;5.18;;;;;;;;;;5011185;28;20437;-59
2023/06/18 11:10:47;;;;;;;5.93;4.95;;;;;;;;;;5007178;28;20049;-59
2023/06/18 11:13:13;;;;;;;5.50;4.90;;;;;;;;;;4995675;28;20173;-59
2023/06/18 11:16:10;;;;;;;6.97;4.85;;;;;;;;;;4994731;28;20048;-59
2023/06/18 11:18:35;;;;;;;6.63;4.80;;;;;;;;;;4995394;28;20030;-59
2023/06/18 11:21:02;;;;;;;5.75;4.90;;;;;;;;;;4993061;28;20024;-60
2023/06/18 11:23:29;;;;;;;5.88;4.97;;;;;;;;;;4995543;28;20034;-59
2023/06/18 11:25:55;;;;;;;7.20;5.07;;;;;;;;;;5009222;28;20027;-59
2023/06/18 11:28:22;;;;;;;6.32;4.95;;;;;;;;;;4995534;28;20040;-59
2023/06/18 11:30:59;;;;;;;7.20;4.47;;;;;;;;;;4994491;28;20030;-59
2023/06/18 11:33:26;;;;;;;6.63;4.60;;;;;;;;;;4995234;28;20040;-59
2023/06/18 11:35:53;;;;;;;9.48;5.30;;;;;;;;;;5009407;28;20033;-59
2023/06/18 11:38:19;;;;;;;8.15;4.95;;;;;;;;;;4995278;28;20299;-59
2023/06/18 11:40:53;;;;;;;6.63;5.00;;;;;;;;;;4993411;28;20493;-59
2023/06/18 11:43:19;;;;;;;6.15;4.70;;;;;;;;;;4994564;28;20034;-60
2023/06/18 11:45:51;;;;;;;5.32;4.63;;;;;;;;;;4994943;28;20038;-59
2023/06/18 11:48:19;;;;;;;4.78;4.22;;;;;;;;;;4995024;28;20065;-59
2023/06/18 11:50:49;;;;;;;6.30;4.50;;;;;;;;;;4993876;28;20084;-59
2023/06/18 11:53:14;;;;;;;;;;;;;;;;;;4993993;28;20034;-59
2023/06/18 11:55:41;;;;;;;5.85;4.80;;;;;;;;;;4994931;28;19921;-59
2023/06/18 11:58:07;;;;;;;7.00;4.50;;;;;;;;;;4999789;28;20038;-59
2023/06/18 12:00:33;;;;;;;5.50;4.65;;;;;;;;;;5014489;28;20493;-60
2023/06/18 12:03:01;;;;;;;6.05;4.60;;;;;;;;;;5013827;28;20045;-59
2023/06/18 12:05:34;;;;;;;5.50;4.53;;;;;;;;;;5014344;28;20029;-59
2023/06/18 12:08:08;;;;;;;4.53;4.13;;;;;;;;;;5013228;28;20432;-59
2023/06/18 12:10:34;;;;;;;7.15;4.60;;;;;;;;;;5010048;28;20056;-59
2023/06/18 12:13:08;;;;;;;6.53;4.30;;;;;;;;;;5013240;28;20030;-59
2023/06/18 12:15:42;;;;;;;5.45;4.50;;;;;;;;;;5013907;28;20098;-59
2023/06/18 12:18:15;;;;;;;6.25;4.22;;;;;;;;;;5011887;28;20068;-60
2023/06/18 12:20:41;;;;;;;5.65;4.38;;;;;;;;;;5009706;28;20486;-59
2023/06/18 12:23:07;;;;;;;6.28;4.22;;;;;;;;;;4993731;28;20085;-59
2023/06/18 12:25:32;;;;;;;5.97;4.40;;;;;;;;;;4994422;28;20482;-59
2023/06/18 12:28:04;;;;;;;5.88;4.53;;;;;;;;;;4993520;28;20026;-60
2023/06/18 12:30:38;;;;;;;5.70;4.50;;;;;;;;;;4994294;28;20040;-59
2023/06/18 12:33:12;;;;;;;7.05;4.80;;;;;;;;;;5011871;28;20052;-59
2023/06/18 12:35:40;;;;;;;6.22;4.50;;;;;;;;;;5007470;28;20546;-59
2023/06/18 12:38:08;;;;;;;6.82;5.00;;;;;;;;;;5008572;28;20021;-59
2023/06/18 12:40:35;;;;;;;7.38;4.88;;;;;;;;;;5009274;28;20046;-59
2023/06/18 12:43:08;;;;;;;7.63;4.80;;;;;;;;;;4992872;28;20428;-60
2023/06/18 12:45:33;;;;;;;6.75;4.90;;;;;;;;;;5012840;28;20044;-59
2023/06/18 12:48:09;;;;;;;6.25;4.80;;;;;;;;;;5011480;28;20034;-60
2023/06/18 12:50:38;;;;;;;6.00;4.57;;;;;;;;;;5013578;28;20038;-60
2023/06/18 12:53:20;;;;;;;7.10;4.78;;;;;;;;;;5012628;28;20030;-59
2023/06/18 12:55:50;;;;;;;5.43;4.63;;;;;;;;;;5002219;28;20038;-59
2023/06/18 12:58:17;;;;;;;7.30;4.70;;;;;;;;;;4992710;28;20078;-60
2023/06/18 13:00:43;;;;;;;5.93;4.75;;;;;;;;;;5005953;28;20040;-59
2023/06/18 13:03:08;;;;;;;6.15;4.60;;;;;;;;;;5032087;28;20021;-59
2023/06/18 13:05:37;;;;;;;6.35;4.35;;;;;;;;;;5018010;28;20533;-60
2023/06/18 13:08:02;;;;;;;5.88;4.82;;;;;;;;;;4992591;28;20089;-60
2023/06/18 13:10:28;;;;;;;5.43;4.38;;;;;;;;;;4993070;28;20128;-60
2023/06/18 13:12:54;;;;;;;5.53;4.60;;;;;;;;;;5005991;28;20041;-60
2023/06/18 13:15:20;;;;;;;5.90;4.80;;;;;;;;;;5031240;28;20037;-59
2023/06/18 13:17:46;;;;;;;6.03;5.07;;;;;;;;;;5006528;28;20387;-60
2023/06/18 13:20:12;;;;;;;4.88;4.38;;;;;;;;;;5010795;28;20494;-59
2023/06/18 13:22:38;;;;;;;6.35;4.68;;;;;;;;;;5011654;28;20475;-59
2023/06/18 13:25:05;;;;;;;6.03;4.50;;;;;;;;;;5001713;28;20109;-59
2023/06/18 13:27:31;;;;;;;5.70;4.82;;;;;;;;;;4992020;28;20042;-59
2023/06/18 13:29:57;;;;;;;8.10;4.70;;;;;;;;;;4991816;28;20034;-59
2023/06/18 13:32:23;;;;;;;8.85;4.80;;;;;;;;;;4992473;28;20034;-60
2023/06/18 13:34:49;;;;;;;8.10;5.60;;;;;;;;;;5001360;28;20175;-59
2023/06/18 13:37:15;;;;;;;6.90;5.50;;;;;;;;;;5011031;28;20439;-59
2023/06/18 13:39:41;;;;;;;6.93;5.20;;;;;;;;;;4998103;28;20153;-58
2023/06/18 13:42:07;;;;;;;6.28;5.13;;;;;;;;;;5006954;28;20032;-59
2023/06/18 13:44:33;;;;;;;8.60;5.53;;;;;;;;;;5020293;28;20038;-58
2023/06/18 13:46:58;;;;;;;5.70;4.90;;;;;;;;;;5018165;28;20104;-59
2023/06/18 13:49:23;;;;;;;8.38;5.68;;;;;;;;;;5032277;28;20418;-59
2023/06/18 13:51:49;;;;;;;6.65;5.55;;;;;;;;;;5030081;28;20063;-59
2023/06/18 13:54:15;;;;;;;6.13;5.07;;;;;;;;;;5011458;28;20040;-58
2023/06/18 13:56:40;;;;;;;9.55;5.28;;;;;;;;;;5004354;28;20109;-58
2023/06/18 13:59:06;;;;;;;7.22;4.85;;;;;;;;;;5001220;28;20074;-59
2023/06/18 14:01:31;;;;;;;6.25;5.00;;;;;;;;;;5010449;28;20041;-57
2023/06/18 14:03:56;;;;;;;7.10;5.10;;;;;;;;;;5012982;28;20026;-59
2023/06/18 14:06:22;;;;;;;7.88;5.07;;;;;;;;;;5009966;28;20176;-59
2023/06/18 14:08:48;;;;;;;6.97;5.15;;;;;;;;;;5012067;28;20387;-59
2023/06/18 14:11:13;;;;;;;5.75;4.90;;;;;;;;;;4998928;28;20049;-60
2023/06/18 14:13:39;;;;;;;6.00;5.38;;;;;;;;;;4993843;28;20041;-60
2023/06/18 14:16:07;;;;;;;6.78;5.40;;;;;;;;;;4991137;28;20112;-59
2023/06/18 14:18:34;;;;;;;6.35;5.07;;;;;;;;;;5001742;28;20506;-60
2023/06/18 14:21:00;;;;;;;8.02;5.30;;;;;;;;;;5009819;28;20037;-60
2023/06/18 14:23:27;;;;;;;6.97;5.05;;;;;;;;;;5004265;28;20042;-60
2023/06/18 14:25:53;;;;;;;6.18;5.35;;;;;;;;;;4991390;28;20026;-60
2023/06/18 14:28:19;;;;;;;6.03;5.03;;;;;;;;;;5008822;28;20292;-60
2023/06/18 14:30:44;;;;;;;6.13;5.30;;;;;;;;;;5014403;28;20081;-60
2023/06/18 14:33:09;;;;;;;6.90;5.40;;;;;;;;;;4991160;28;20039;-60